createdAt,value
2022-09-28T00:00:25.112Z,15.8
2022-09-28T00:05:25.093Z,15.1
2022-09-28T00:10:25.097Z,15.9
2022-09-28T00:15:25.094Z,13.3
2022-09-28T00:20:25.103Z,11.1
2022-09-28T00:25:25.101Z,11.8
2022-09-28T00:30:25.094Z,12.9
2022-09-28T00:35:25.110Z,14.5
2022-09-28T00:40:25.156Z,14.4
2022-09-28T00:45:25.122Z,12.2
2022-09-28T00:50:25.109Z,11.9
2022-09-28T00:55:25.102Z,12.7
2022-09-28T01:00:25.111Z,11.8
2022-09-28T01:05:25.108Z,11.9
2022-09-28T01:10:25.096Z,12.8
2022-09-28T01:15:25.097Z,10.8
2022-09-28T01:20:25.089Z,10.2
2022-09-28T01:25:25.101Z,10.2
2022-09-28T01:30:25.091Z,16.5
2022-09-28T01:35:25.097Z,16.9
2022-09-28T01:40:25.118Z,14.3
2022-09-28T01:45:25.098Z,14.4
2022-09-28T01:50:25.097Z,14.1
2022-09-28T01:55:25.112Z,14.6
2022-09-28T02:00:25.097Z,15.4
2022-09-28T02:05:25.097Z,16.6
2022-09-28T02:10:25.095Z,10.1
2022-09-28T02:15:25.090Z,11.1
2022-09-28T02:20:25.097Z,11.5
2022-09-28T02:25:25.101Z,14.4
2022-09-28T02:30:25.091Z,16.5
2022-09-28T02:35:25.101Z,16.2
2022-09-28T02:40:25.145Z,20
2022-09-28T02:45:25.148Z,20.6
2022-09-28T02:50:25.097Z,23.3
2022-09-28T02:55:25.099Z,19.6
2022-09-28T03:00:25.097Z,21.8
2022-09-28T03:05:25.097Z,21
2022-09-28T03:10:25.097Z,22.9
2022-09-28T03:15:25.102Z,22.7
2022-09-28T03:20:25.100Z,22.8
2022-09-28T03:25:25.105Z,20.7
2022-09-28T03:30:25.091Z,20.6
2022-09-28T03:35:25.112Z,19.3
2022-09-28T03:40:25.122Z,19.2
2022-09-28T03:45:25.169Z,20.8
2022-09-28T03:50:25.096Z,21
2022-09-28T03:55:25.092Z,19.5
2022-09-28T04:00:25.094Z,16
2022-09-28T04:05:25.103Z,17.7
2022-09-28T04:10:25.091Z,17.7
2022-09-28T04:15:25.095Z,17.8
2022-09-28T04:20:25.098Z,17.4
2022-09-28T04:25:25.114Z,18.3
2022-09-28T04:30:25.101Z,13.8
2022-09-28T04:35:25.108Z,16
2022-09-28T04:40:25.157Z,16.3
2022-09-28T04:45:25.169Z,18.7
2022-09-28T04:50:25.094Z,20.1
2022-09-28T04:55:25.102Z,16.8
2022-09-28T05:00:25.103Z,15.7
2022-09-28T05:05:25.105Z,21.2
2022-09-28T05:10:25.102Z,17.2
2022-09-28T05:15:25.118Z,12.4
2022-09-28T05:20:25.103Z,16.5
2022-09-28T05:25:25.096Z,17.1
2022-09-28T05:30:25.093Z,18.9
2022-09-28T05:35:25.107Z,20.1
2022-09-28T05:40:25.127Z,17.6
2022-09-28T05:45:25.206Z,16.3
2022-09-28T05:50:25.088Z,11.5
2022-09-28T05:55:25.141Z,12.6
2022-09-28T06:00:25.159Z,9.1
2022-09-28T06:05:25.219Z,14.2
2022-09-28T06:10:25.088Z,17
2022-09-28T06:15:25.104Z,11.1
2022-09-28T06:20:25.103Z,12.1
2022-09-28T06:25:25.114Z,10.9
2022-09-28T06:30:25.149Z,13.8
2022-09-28T06:35:25.116Z,11.1
2022-09-28T06:40:25.132Z,14.6
2022-09-28T06:45:25.095Z,12.4
2022-09-28T06:50:25.088Z,24
2022-09-28T06:55:25.099Z,17.8
2022-09-28T07:00:25.092Z,21.5
2022-09-28T07:05:25.099Z,17
2022-09-28T07:10:25.097Z,16.1
2022-09-28T07:15:25.107Z,15.2
2022-09-28T07:20:25.109Z,17.9
2022-09-28T07:25:25.098Z,15.6
2022-09-28T07:30:25.187Z,12.9
2022-09-28T07:35:25.115Z,15.4
2022-09-28T07:40:25.177Z,16.7
2022-09-28T07:45:25.108Z,16.9
2022-09-28T07:50:25.107Z,15.1
2022-09-28T07:55:25.110Z,25.7
2022-09-28T08:00:25.102Z,22
2022-09-28T08:05:25.117Z,23.5
2022-09-28T08:10:25.104Z,17.9
2022-09-28T08:15:25.117Z,22.5
2022-09-28T08:20:25.117Z,27.9
2022-09-28T08:25:25.104Z,18.6
2022-09-28T08:30:25.139Z,20.6
2022-09-28T08:35:25.128Z,14.7
2022-09-28T08:40:25.175Z,16.5
2022-09-28T08:45:25.103Z,18.5
2022-09-28T08:50:25.112Z,12.8
2022-09-28T08:55:25.100Z,14.1
2022-09-28T09:00:25.093Z,12.9
2022-09-28T09:05:25.221Z,18.9
2022-09-28T09:10:25.089Z,12.3
2022-09-28T09:15:25.111Z,18.4
2022-09-28T09:20:25.094Z,13.4
2022-09-28T09:25:25.102Z,13.8
2022-09-28T09:30:27.472Z,18.2
2022-09-28T09:35:29.097Z,17.8
2022-09-28T09:40:25.140Z,19.7
2022-09-28T09:45:25.096Z,20.3
2022-09-28T09:50:25.089Z,20.3
2022-09-28T09:55:28.857Z,16.2
2022-09-28T10:00:25.098Z,18.1
2022-09-28T10:05:25.107Z,18.1
2022-09-28T10:10:25.097Z,12.3
2022-09-28T10:15:25.106Z,13.5
2022-09-28T10:20:25.103Z,19
2022-09-28T10:25:25.109Z,19.5
2022-09-28T10:30:25.099Z,17.5
2022-09-28T10:35:25.104Z,14.8
2022-09-28T10:40:25.145Z,18.2
2022-09-28T10:45:25.096Z,13.5
2022-09-28T10:50:25.102Z,14.8
2022-09-28T10:55:25.109Z,10.5
2022-09-28T11:00:25.096Z,14.7
2022-09-28T11:05:25.095Z,13.5
2022-09-28T11:10:25.103Z,13.6
2022-09-28T11:15:25.103Z,15.5
2022-09-28T11:20:27.692Z,23.3
2022-09-28T11:25:25.094Z,22.3
2022-09-28T11:30:25.162Z,17.3
2022-09-28T11:35:25.110Z,16.2
2022-09-28T11:40:25.163Z,21.8
2022-09-28T11:45:25.105Z,24.6
2022-09-28T11:50:25.135Z,17.3
2022-09-28T11:55:25.107Z,17.6
2022-09-28T12:00:25.103Z,17.4
2022-09-28T12:05:25.110Z,18.5
2022-09-28T12:10:25.099Z,19.9
2022-09-28T12:15:25.099Z,19.6
2022-09-28T12:20:25.115Z,22.8
2022-09-28T12:25:25.102Z,15.8
2022-09-28T12:30:25.098Z,15.2
2022-09-28T12:35:25.094Z,12.2
2022-09-28T12:40:25.130Z,16.9
2022-09-28T12:45:25.119Z,16.1
2022-09-28T12:50:44.106Z,13.1
2022-09-28T12:55:25.108Z,12.8
2022-09-28T13:00:25.093Z,15.9
2022-09-28T13:05:25.113Z,15.9
2022-09-28T13:10:25.108Z,15.2
2022-09-28T13:15:25.111Z,14.6
2022-09-28T13:20:25.106Z,14.3
2022-09-28T13:25:25.096Z,22
2022-09-28T13:30:25.143Z,21.8
2022-09-28T13:35:25.096Z,18.3
2022-09-28T13:40:25.109Z,18.9
2022-09-28T13:45:25.110Z,20.8
2022-09-28T13:50:25.100Z,16.4
2022-09-28T13:55:25.107Z,16.3
2022-09-28T14:00:25.100Z,14
2022-09-28T14:05:25.129Z,18.1
2022-09-28T14:10:25.097Z,16.5
2022-09-28T14:15:25.097Z,18.1
2022-09-28T14:20:25.100Z,11.7
2022-09-28T14:25:25.095Z,11
2022-09-28T14:30:25.095Z,14
2022-09-28T14:35:25.109Z,12.6
2022-09-28T14:40:25.170Z,14.8
2022-09-28T14:45:25.104Z,11.9
2022-09-28T14:50:25.104Z,15.2
2022-09-28T14:55:25.108Z,13.7
2022-09-28T15:00:25.104Z,17.3
2022-09-28T15:05:25.272Z,17.1
2022-09-28T15:10:27.623Z,12.7
2022-09-28T15:15:25.159Z,14.8
2022-09-28T15:20:25.092Z,14
2022-09-28T15:25:25.101Z,12.8
2022-09-28T15:30:25.104Z,8.6
2022-09-28T15:35:25.104Z,10
2022-09-28T15:40:25.153Z,8.1
2022-09-28T15:45:25.107Z,11
2022-09-28T15:50:25.115Z,11
2022-09-28T15:55:25.101Z,8
2022-09-28T16:00:25.092Z,9.4
2022-09-28T16:05:25.103Z,9.4
2022-09-28T16:10:25.497Z,16.3
2022-09-28T16:15:25.111Z,16.3
2022-09-28T16:20:25.105Z,9.9
2022-09-28T16:25:25.096Z,7.6
2022-09-28T16:30:25.105Z,9
2022-09-28T16:35:25.100Z,7.3
2022-09-28T16:40:25.193Z,7
2022-09-28T16:45:25.107Z,7.9
2022-09-28T16:50:25.096Z,9.1
2022-09-28T16:55:41.372Z,8.3
2022-09-28T17:00:25.095Z,8.2
2022-09-28T17:05:25.122Z,9.5
2022-09-28T17:10:25.097Z,9.3
2022-09-28T17:15:25.116Z,8.4
2022-09-28T17:20:25.100Z,7.1
2022-09-28T17:25:25.124Z,5.6
2022-09-28T17:30:25.863Z,5.6
2022-09-28T17:35:25.813Z,5.4
2022-09-28T17:40:25.188Z,6.8
2022-09-28T17:45:25.096Z,7.2
2022-09-28T17:50:25.097Z,8.4
2022-09-28T17:55:25.100Z,9.5
2022-09-28T18:00:25.091Z,9.2
2022-09-28T18:05:25.096Z,7.4
2022-09-28T18:10:25.095Z,7.6
2022-09-28T18:15:25.104Z,8.9
2022-09-28T18:20:25.099Z,9.9
2022-09-28T18:25:25.098Z,9.1
2022-09-28T18:30:25.101Z,9.1
2022-09-28T18:35:25.099Z,9.4
2022-09-28T18:40:25.139Z,9.8
2022-09-28T18:45:25.096Z,8.9
2022-09-28T18:50:25.097Z,9.1
2022-09-28T18:55:25.094Z,7.7
2022-09-28T19:00:25.101Z,9.4
2022-09-28T19:05:25.107Z,8.8
2022-09-28T19:10:25.099Z,7.1
2022-09-28T19:15:25.095Z,6.6
2022-09-28T19:20:25.106Z,7.3
2022-09-28T19:25:25.094Z,8.2
2022-09-28T19:30:25.106Z,7.6
2022-09-28T19:35:25.092Z,8
2022-09-28T19:40:25.153Z,7.8
2022-09-28T19:45:25.108Z,7.8
2022-09-28T19:50:25.093Z,7.5
2022-09-28T19:55:25.109Z,8.6
2022-09-28T20:00:25.101Z,8.2
2022-09-28T20:05:25.106Z,11.6
2022-09-28T20:10:25.106Z,10.9
2022-09-28T20:15:25.276Z,9.1
2022-09-28T20:20:25.093Z,8.8
2022-09-28T20:25:25.114Z,10.8
2022-09-28T20:30:25.091Z,8.3
2022-09-28T20:35:32.506Z,9.7
2022-09-28T20:40:25.159Z,10.7
2022-09-28T20:45:25.093Z,10.7
2022-09-28T20:50:25.100Z,12.1
2022-09-28T20:55:25.112Z,12.2
2022-09-28T21:00:25.098Z,11.7
2022-09-28T21:05:25.098Z,11.7
2022-09-28T21:10:25.087Z,9.7
2022-09-28T21:15:25.142Z,11.7
2022-09-28T21:20:25.098Z,9.1
2022-09-28T21:25:25.098Z,7.8
2022-09-28T21:30:25.089Z,7.8
2022-09-28T21:35:25.106Z,0
2022-09-28T21:40:25.153Z,10
2022-09-28T21:45:25.106Z,9.3
2022-09-28T21:50:25.091Z,8.5
2022-09-28T21:55:25.099Z,10.9
2022-09-28T22:00:25.104Z,7.2
2022-09-28T22:05:25.099Z,4
2022-09-28T22:10:25.099Z,6.1
2022-09-28T22:15:25.097Z,7.4
2022-09-28T22:20:25.096Z,7.4
2022-09-28T22:25:25.101Z,0
2022-09-28T22:30:25.099Z,5.4
2022-09-28T22:35:25.106Z,6.3
2022-09-28T22:40:25.102Z,6.2
2022-09-28T22:45:25.096Z,4
2022-09-28T22:50:25.092Z,4.7
2022-09-28T22:55:25.093Z,0
2022-09-28T23:00:25.104Z,0
2022-09-28T23:05:25.104Z,0
2022-09-28T23:10:25.105Z,6.4
2022-09-28T23:15:25.099Z,5.6
2022-09-28T23:20:25.096Z,4.4
2022-09-28T23:25:25.104Z,4.7
2022-09-28T23:30:25.087Z,11.7
2022-09-28T23:35:25.104Z,15.4
2022-09-28T23:40:25.148Z,11.3
2022-09-28T23:45:25.094Z,7.5
2022-09-28T23:50:25.309Z,8.3
2022-09-28T23:55:25.095Z,8.4
